sensor_id;sensor_type;location;lat;lon;timestamp;pressure;altitude;pressure_sealevel;temperature;humidity
24013;BME280;12220;50.194;18.948;2023-03-22T00:01:18;101799.93;;;8.94;72.90
24013;BME280;12220;50.194;18.948;2023-03-22T00:03:25;101807.28;;;8.92;72.85
24013;BME280;12220;50.194;18.948;2023-03-22T00:05:27;101808.38;;;8.88;72.90
24013;BME280;12220;50.194;18.948;2023-03-22T00:07:32;101801.23;;;8.85;73.01
24013;BME280;12220;50.194;18.948;2023-03-22T00:09:34;101807.58;;;8.86;73.08
24013;BME280;12220;50.194;18.948;2023-03-22T00:11:40;101806.69;;;8.85;72.93
24013;BME280;12220;50.194;18.948;2023-03-22T00:13:41;101804.16;;;8.81;72.90
24013;BME280;12220;50.194;18.948;2023-03-22T00:15:46;101796.18;;;8.76;72.85
24013;BME280;12220;50.194;18.948;2023-03-22T00:17:49;101802.73;;;8.72;72.87
24013;BME280;12220;50.194;18.948;2023-03-22T00:19:55;101798.39;;;8.68;72.95
24013;BME280;12220;50.194;18.948;2023-03-22T00:21:57;101802.06;;;8.67;73.13
24013;BME280;12220;50.194;18.948;2023-03-22T00:24:00;101795.84;;;8.63;73.26
24013;BME280;12220;50.194;18.948;2023-03-22T00:26:02;101796.74;;;8.64;73.32
24013;BME280;12220;50.194;18.948;2023-03-22T00:28:11;101789.51;;;8.63;73.28
24013;BME280;12220;50.194;18.948;2023-03-22T00:30:13;101796.81;;;8.62;73.23
24013;BME280;12220;50.194;18.948;2023-03-22T00:32:15;101789.57;;;8.61;73.20
24013;BME280;12220;50.194;18.948;2023-03-22T00:34:16;101789.64;;;8.60;73.16
24013;BME280;12220;50.194;18.948;2023-03-22T00:36:25;101775.16;;;8.58;73.16
24013;BME280;12220;50.194;18.948;2023-03-22T00:38:27;101775.23;;;8.56;73.24
24013;BME280;12220;50.194;18.948;2023-03-22T00:40:37;101777.09;;;8.55;73.32
24013;BME280;12220;50.194;18.948;2023-03-22T00:42:40;101771.70;;;8.54;73.35
24013;BME280;12220;50.194;18.948;2023-03-22T00:44:42;101769.91;;;8.53;73.34
24013;BME280;12220;50.194;18.948;2023-03-22T00:46:43;101764.59;;;8.50;73.37
24013;BME280;12220;50.194;18.948;2023-03-22T00:48:45;101764.73;;;8.47;73.43
24013;BME280;12220;50.194;18.948;2023-03-22T00:50:46;101759.38;;;8.44;73.46
24013;BME280;12220;50.194;18.948;2023-03-22T00:52:57;101749.41;;;8.43;73.50
24013;BME280;12220;50.194;18.948;2023-03-22T00:54:58;101751.34;;;8.41;73.57
24013;BME280;12220;50.194;18.948;2023-03-22T00:57:00;101758.61;;;8.40;73.59
24013;BME280;12220;50.194;18.948;2023-03-22T00:59:02;101755.01;;;8.40;73.52
24013;BME280;12220;50.194;18.948;2023-03-22T01:01:12;101757.01;;;8.36;73.42
24013;BME280;12220;50.194;18.948;2023-03-22T01:03:14;101749.84;;;8.33;73.43
24013;BME280;12220;50.194;18.948;2023-03-22T01:05:16;101754.53;;;8.30;73.48
24013;BME280;12220;50.194;18.948;2023-03-22T01:07:21;101757.25;;;8.30;73.55
24013;BME280;12220;50.194;18.948;2023-03-22T01:09:27;101754.59;;;8.28;73.54
24013;BME280;12220;50.194;18.948;2023-03-22T01:11:31;101752.85;;;8.27;73.49
24013;BME280;12220;50.194;18.948;2023-03-22T01:13:33;101757.46;;;8.25;73.32
24013;BME280;12220;50.194;18.948;2023-03-22T01:15:34;101756.80;;;8.20;73.18
24013;BME280;12220;50.194;18.948;2023-03-22T01:17:42;101746.05;;;8.15;73.25
24013;BME280;12220;50.194;18.948;2023-03-22T01:19:44;101736.34;;;8.10;73.38
24013;BME280;12220;50.194;18.948;2023-03-22T01:21:45;101729.09;;;8.09;73.44
24013;BME280;12220;50.194;18.948;2023-03-22T01:23:47;101726.43;;;8.07;73.48
24013;BME280;12220;50.194;18.948;2023-03-22T01:25:57;101727.31;;;8.08;73.50
24013;BME280;12220;50.194;18.948;2023-03-22T01:27:59;101731.95;;;8.06;73.45
24013;BME280;12220;50.194;18.948;2023-03-22T01:30:04;101728.32;;;8.05;73.37
24013;BME280;12220;50.194;18.948;2023-03-22T01:32:07;101718.32;;;8.06;73.29
24013;BME280;12220;50.194;18.948;2023-03-22T01:34:12;101719.27;;;8.05;73.22
24013;BME280;12220;50.194;18.948;2023-03-22T01:36:14;101725.66;;;8.03;73.17
24013;BME280;12220;50.194;18.948;2023-03-22T01:38:16;101726.64;;;8.02;73.11
24013;BME280;12220;50.194;18.948;2023-03-22T01:40:17;101722.13;;;8.01;73.06
24013;BME280;12220;50.194;18.948;2023-03-22T01:42:28;101725.95;;;7.97;73.05
24013;BME280;12220;50.194;18.948;2023-03-22T01:44:30;101735.14;;;7.95;72.66
24013;BME280;12220;50.194;18.948;2023-03-22T01:46:32;101731.81;;;7.88;72.52
24013;BME280;12220;50.194;18.948;2023-03-22T01:48:40;101724.00;;;7.79;72.52
24013;BME280;12220;50.194;18.948;2023-03-22T01:50:52;101729.73;;;7.73;72.57
24013;BME280;12220;50.194;18.948;2023-03-22T01:53:06;101730.05;;;7.65;72.51
24013;BME280;12220;50.194;18.948;2023-03-22T01:55:09;101716.78;;;7.56;72.61
24013;BME280;12220;50.194;18.948;2023-03-22T01:57:13;101717.12;;;7.48;72.78
24013;BME280;12220;50.194;18.948;2023-03-22T01:59:14;101705.48;;;7.44;72.98
24013;BME280;12220;50.194;18.948;2023-03-22T02:01:20;101712.81;;;7.42;73.10
24013;BME280;12220;50.194;18.948;2023-03-22T02:05:35;101708.50;;;7.37;73.12
24013;BME280;12220;50.194;18.948;2023-03-22T02:07:39;101715.86;;;7.35;73.21
24013;BME280;12220;50.194;18.948;2023-03-22T02:09:41;101703.23;;;7.32;73.27
24013;BME280;12220;50.194;18.948;2023-03-22T02:11:49;101700.59;;;7.30;73.31
24013;BME280;12220;50.194;18.948;2023-03-22T02:29:55;101705.80;;;6.91;73.42
24013;BME280;12220;50.194;18.948;2023-03-22T02:34:43;101690.97;;;6.76;73.74
24013;BME280;12220;50.194;18.948;2023-03-22T02:46:21;101682.57;;;6.58;73.99
24013;BME280;12220;50.194;18.948;2023-03-22T02:50:45;101685.62;;;6.49;73.97
24013;BME280;12220;50.194;18.948;2023-03-22T02:52:54;101675.76;;;6.47;74.16
24013;BME280;12220;50.194;18.948;2023-03-22T02:55:08;101677.58;;;6.46;74.27
24013;BME280;12220;50.194;18.948;2023-03-22T02:59:26;101664.38;;;6.35;73.97
24013;BME280;12220;50.194;18.948;2023-03-22T03:01:55;101448.28;;;4.74;73.85
24013;BME280;12220;50.194;18.948;2023-03-22T03:03:41;101662.41;;;6.15;74.21
24013;BME280;12220;50.194;18.948;2023-03-22T03:05:49;101673.40;;;6.12;74.43
24013;BME280;12220;50.194;18.948;2023-03-22T03:07:58;101668.09;;;6.09;74.61
24013;BME280;12220;50.194;18.948;2023-03-22T03:10:08;101663.58;;;6.08;74.70
24013;BME280;12220;50.194;18.948;2023-03-22T03:12:19;101667.23;;;6.07;74.77
24013;BME280;12220;50.194;18.948;2023-03-22T03:14:24;101675.45;;;6.05;74.87
24013;BME280;12220;50.194;18.948;2023-03-22T03:16:28;101677.23;;;6.06;74.97
24013;BME280;12220;50.194;18.948;2023-03-22T03:20:55;101680.88;;;6.05;75.04
24013;BME280;12220;50.194;18.948;2023-03-22T03:23:23;101679.07;;;6.06;75.19
24013;BME280;12220;50.194;18.948;2023-03-22T03:25:36;101686.21;;;6.08;75.34
24013;BME280;12220;50.194;18.948;2023-03-22T03:30:18;101693.27;;;6.14;75.47
24013;BME280;12220;50.194;18.948;2023-03-22T03:32:28;101694.17;;;6.15;75.46
24013;BME280;12220;50.194;18.948;2023-03-22T03:34:40;101696.95;;;6.13;75.42
24013;BME280;12220;50.194;18.948;2023-03-22T03:36:52;101698.76;;;6.13;75.50
24013;BME280;12220;50.194;18.948;2023-03-22T03:38:57;101706.04;;;6.12;75.58
24013;BME280;12220;50.194;18.948;2023-03-22T03:41:03;101694.22;;;6.13;75.63
24013;BME280;12220;50.194;18.948;2023-03-22T03:43:06;101701.48;;;6.13;75.71
24013;BME280;12220;50.194;18.948;2023-03-22T03:45:09;101709.63;;;6.13;75.81
24013;BME280;12220;50.194;18.948;2023-03-22T03:47:12;101698.70;;;6.14;75.82
24013;BME280;12220;50.194;18.948;2023-03-22T03:49:15;101702.38;;;6.13;75.78
24013;BME280;12220;50.194;18.948;2023-03-22T03:51:17;101696.95;;;6.13;75.92
24013;BME280;12220;50.194;18.948;2023-03-22T03:53:19;101697.82;;;6.14;75.98
24013;BME280;12220;50.194;18.948;2023-03-22T03:55:22;101705.04;;;6.15;76.03
24013;BME280;12220;50.194;18.948;2023-03-22T03:57:29;101698.64;;;6.16;76.09
24013;BME280;12220;50.194;18.948;2023-03-22T03:59:30;101706.80;;;6.16;76.20
24013;BME280;12220;50.194;18.948;2023-03-22T04:01:32;101703.14;;;6.17;76.25
24013;BME280;12220;50.194;18.948;2023-03-22T04:03:36;101702.27;;;6.16;76.28
24013;BME280;12220;50.194;18.948;2023-03-22T04:05:44;101695.87;;;6.17;76.30
24013;BME280;12220;50.194;18.948;2023-03-22T04:07:45;101703.20;;;6.15;76.34
24013;BME280;12220;50.194;18.948;2023-03-22T04:09:47;101697.76;;;6.15;76.39
24013;BME280;12220;50.194;18.948;2023-03-22T04:11:49;101694.99;;;6.17;76.49
24013;BME280;12220;50.194;18.948;2023-03-22T04:13:59;101696.77;;;6.18;76.45
24013;BME280;12220;50.194;18.948;2023-03-22T04:16:00;101696.71;;;6.19;76.47
24013;BME280;12220;50.194;18.948;2023-03-22T04:18:02;101693.09;;;6.19;76.37
24013;BME280;12220;50.194;18.948;2023-03-22T04:20:06;101700.48;;;6.15;76.37
24013;BME280;12220;50.194;18.948;2023-03-22T04:22:14;101695.98;;;6.14;76.40
24013;BME280;12220;50.194;18.948;2023-03-22T04:24:19;101701.53;;;6.11;76.51
24013;BME280;12220;50.194;18.948;2023-03-22T04:26:21;101696.95;;;6.13;76.64
24013;BME280;12220;50.194;18.948;2023-03-22T04:28:23;101695.16;;;6.12;76.68
24013;BME280;12220;50.194;18.948;2023-03-22T04:30:30;101697.82;;;6.14;76.74
24013;BME280;12220;50.194;18.948;2023-03-22T04:32:36;101695.05;;;6.15;76.80
24013;BME280;12220;50.194;18.948;2023-03-22T04:34:38;101700.48;;;6.15;76.80
24013;BME280;12220;50.194;18.948;2023-03-22T04:36:39;101694.11;;;6.16;76.78
24013;BME280;12220;50.194;18.948;2023-03-22T04:38:44;101694.17;;;6.15;76.74
24013;BME280;12220;50.194;18.948;2023-03-22T04:40:46;101693.27;;;6.14;76.83
24013;BME280;12220;50.194;18.948;2023-03-22T04:42:47;101685.09;;;6.14;76.88
24013;BME280;12220;50.194;18.948;2023-03-22T04:44:49;101694.11;;;6.16;76.89
24013;BME280;12220;50.194;18.948;2023-03-22T04:47:00;101688.62;;;6.18;76.93
24013;BME280;12220;50.194;18.948;2023-03-22T04:49:02;101691.27;;;6.19;76.93
24013;BME280;12220;50.194;18.948;2023-03-22T04:51:08;101690.22;;;6.23;76.97
24013;BME280;12220;50.194;18.948;2023-03-22T04:53:10;101695.55;;;6.26;77.01
24013;BME280;12220;50.194;18.948;2023-03-22T04:55:15;101696.36;;;6.28;76.98
24013;BME280;12220;50.194;18.948;2023-03-22T04:57:16;101696.25;;;6.32;76.96
24013;BME280;12220;50.194;18.948;2023-03-22T04:59:18;101698.91;;;6.33;76.96
24013;BME280;12220;50.194;18.948;2023-03-22T05:01:20;101697.91;;;6.36;76.96
24013;BME280;12220;50.194;18.948;2023-03-22T05:03:30;101732.34;;;6.37;76.90
24013;BME280;12220;50.194;18.948;2023-03-22T05:05:31;101696.05;;;6.38;76.90
24013;BME280;12220;50.194;18.948;2023-03-22T05:07:33;101691.48;;;6.38;76.90
24013;BME280;12220;50.194;18.948;2023-03-22T05:09:34;101686.91;;;6.39;76.93
24013;BME280;12220;50.194;18.948;2023-03-22T05:11:45;101689.63;;;6.39;76.93
24013;BME280;12220;50.194;18.948;2023-03-22T05:13:47;101689.57;;;6.40;76.95
24013;BME280;12220;50.194;18.948;2023-03-22T05:15:48;101692.30;;;6.40;76.98
24013;BME280;12220;50.194;18.948;2023-03-22T05:17:51;101693.20;;;6.41;77.07
24013;BME280;12220;50.194;18.948;2023-03-22T05:20:00;101696.74;;;6.43;77.06
24013;BME280;12220;50.194;18.948;2023-03-22T05:22:10;101693.09;;;6.44;77.11
24013;BME280;12220;50.194;18.948;2023-03-22T05:24:13;101699.34;;;6.46;77.17
24013;BME280;12220;50.194;18.948;2023-03-22T05:26:15;101694.76;;;6.48;77.20
24013;BME280;12220;50.194;18.948;2023-03-22T05:28:24;101696.56;;;6.48;77.22
24013;BME280;12220;50.194;18.948;2023-03-22T05:30:28;101687.41;;;6.50;77.24
24013;BME280;12220;50.194;18.948;2023-03-22T05:32:30;101683.80;;;6.50;77.29
24013;BME280;12220;50.194;18.948;2023-03-22T05:34:32;101692.79;;;6.52;77.38
24013;BME280;12220;50.194;18.948;2023-03-22T05:36:42;101693.59;;;6.54;77.45
24013;BME280;12220;50.194;18.948;2023-03-22T05:38:44;101696.30;;;6.55;77.49
24013;BME280;12220;50.194;18.948;2023-03-22T05:40:46;101696.23;;;6.57;77.57
24013;BME280;12220;50.194;18.948;2023-03-22T05:42:47;101696.18;;;6.58;77.65
24013;BME280;12220;50.194;18.948;2023-03-22T05:44:51;101697.92;;;6.59;77.72
24013;BME280;12220;50.194;18.948;2023-03-22T05:46:52;101697.87;;;6.61;77.79
24013;BME280;12220;50.194;18.948;2023-03-22T05:48:54;101688.70;;;6.63;77.87
24013;BME280;12220;50.194;18.948;2023-03-22T05:50:56;101697.66;;;6.67;77.91
24013;BME280;12220;50.194;18.948;2023-03-22T05:53:06;101696.62;;;6.70;77.94
24013;BME280;12220;50.194;18.948;2023-03-22T05:55:12;101695.63;;;6.72;77.98
24013;BME280;12220;50.194;18.948;2023-03-22T05:57:14;101698.23;;;6.75;78.00
24013;BME280;12220;50.194;18.948;2023-03-22T05:59:18;101705.39;;;6.78;78.04
24013;BME280;12220;50.194;18.948;2023-03-22T06:01:21;101694.38;;;6.81;78.06
24013;BME280;12220;50.194;18.948;2023-03-22T06:03:26;101697.04;;;6.83;78.10
24013;BME280;12220;50.194;18.948;2023-03-22T06:05:31;101702.36;;;6.86;78.17
24013;BME280;12220;50.194;18.948;2023-03-22T06:07:37;101703.14;;;6.89;78.22
24013;BME280;12220;50.194;18.948;2023-03-22T06:09:39;101703.03;;;6.92;78.26
24013;BME280;12220;50.194;18.948;2023-03-22T06:11:41;101704.67;;;6.96;78.30
24013;BME280;12220;50.194;18.948;2023-03-22T06:13:43;101695.52;;;6.99;78.33
24013;BME280;12220;50.194;18.948;2023-03-22T06:15:47;101699.86;;;7.03;78.36
24013;BME280;12220;50.194;18.948;2023-03-22T06:20:29;101708.55;;;7.13;78.37
24013;BME280;12220;50.194;18.948;2023-03-22T06:22:40;101711.15;;;7.16;78.46
24013;BME280;12220;50.194;18.948;2023-03-22T06:24:43;101710.15;;;7.19;78.45
24013;BME280;12220;50.194;18.948;2023-03-22T06:26:46;101705.58;;;7.19;78.46
24013;BME280;12220;50.194;18.948;2023-03-22T06:28:57;101700.98;;;7.21;78.52
24013;BME280;12220;50.194;18.948;2023-03-22T06:33:56;101701.59;;;7.28;78.68
24013;BME280;12220;50.194;18.948;2023-03-22T06:41:04;101700.38;;;7.35;78.82
24013;BME280;12220;50.194;18.948;2023-03-22T06:43:34;101699.38;;;7.38;78.85
24013;BME280;12220;50.194;18.948;2023-03-22T06:46:06;101702.95;;;7.40;78.91
24013;BME280;12220;50.194;18.948;2023-03-22T06:48:32;101689.19;;;7.43;78.98
24013;BME280;12220;50.194;18.948;2023-03-22T06:55:50;101701.41;;;7.55;79.17
24013;BME280;12220;50.194;18.948;2023-03-22T06:58:20;101700.41;;;7.57;79.22
24013;BME280;12220;50.194;18.948;2023-03-22T07:00:46;101697.48;;;7.62;79.31
24013;BME280;12220;50.194;18.948;2023-03-22T07:03:03;101702.80;;;7.65;79.35
24013;BME280;12220;50.194;18.948;2023-03-22T07:05:05;101702.66;;;7.68;79.26
24013;BME280;12220;50.194;18.948;2023-03-22T07:07:06;101698.86;;;7.72;79.51
24013;BME280;12220;50.194;18.948;2023-03-22T07:09:17;101704.98;;;7.77;79.55
24013;BME280;12220;50.194;18.948;2023-03-22T07:11:19;101697.57;;;7.81;79.60
24013;BME280;12220;50.194;18.948;2023-03-22T07:13:21;101702.89;;;7.84;79.63
24013;BME280;12220;50.194;18.948;2023-03-22T07:15:23;101703.55;;;7.89;79.68
24013;BME280;12220;50.194;18.948;2023-03-22T07:17:32;101700.66;;;7.94;79.71
24013;BME280;12220;50.194;18.948;2023-03-22T07:19:34;101703.24;;;7.97;79.76
24013;BME280;12220;50.194;18.948;2023-03-22T07:21:36;101709.44;;;8.00;79.86
24013;BME280;12220;50.194;18.948;2023-03-22T07:23:38;101741.89;;;8.07;79.89
24013;BME280;12220;50.194;18.948;2023-03-22T07:25:48;101712.59;;;8.12;79.89
24013;BME280;12220;50.194;18.948;2023-03-22T07:27:51;101708.77;;;8.16;79.92
24013;BME280;12220;50.194;18.948;2023-03-22T07:29:52;101710.41;;;8.20;79.92
24013;BME280;12220;50.194;18.948;2023-03-22T07:31:54;101711.08;;;8.25;79.94
24013;BME280;12220;50.194;18.948;2023-03-22T07:34:03;101713.52;;;8.31;79.97
24013;BME280;12220;50.194;18.948;2023-03-22T07:36:06;101717.82;;;8.37;79.98
24013;BME280;12220;50.194;18.948;2023-03-22T07:38:08;101705.73;;;8.43;79.97
24013;BME280;12220;50.194;18.948;2023-03-22T07:40:11;101704.61;;;8.48;79.95
24013;BME280;12220;50.194;18.948;2023-03-22T07:42:18;101703.51;;;8.52;79.88
24013;BME280;12220;50.194;18.948;2023-03-22T07:44:20;101701.44;;;8.58;79.83
24013;BME280;12220;50.194;18.948;2023-03-22T07:46:22;101692.07;;;8.63;79.79
24013;BME280;12220;50.194;18.948;2023-03-22T07:48:23;101697.28;;;8.69;79.82
24013;BME280;12220;50.194;18.948;2023-03-22T07:50:33;101706.13;;;8.75;79.82
24013;BME280;12220;50.194;18.948;2023-03-22T07:52:35;101704.08;;;8.80;79.83
24013;BME280;12220;50.194;18.948;2023-03-22T07:54:37;101700.18;;;8.85;79.84
24013;BME280;12220;50.194;18.948;2023-03-22T07:56:39;101694.34;;;8.93;79.85
24013;BME280;12220;50.194;18.948;2023-03-22T07:58:48;101694.86;;;9.01;79.91
24013;BME280;12220;50.194;18.948;2023-03-22T08:00:50;101694.63;;;9.06;79.84
24013;BME280;12220;50.194;18.948;2023-03-22T08:02:52;101682.52;;;9.12;79.80
24013;BME280;12220;50.194;18.948;2023-03-22T08:04:53;101690.33;;;9.19;79.72
24013;BME280;12220;50.194;18.948;2023-03-22T08:07:03;101688.99;;;9.28;79.64
24013;BME280;12220;50.194;18.948;2023-03-22T08:09:09;101518.29;;;8.24;79.51
24013;BME280;12220;50.194;18.948;2023-03-22T08:11:12;101681.07;;;9.41;79.50
24013;BME280;12220;50.194;18.948;2023-03-22T08:13:13;101682.61;;;9.47;79.40
24013;BME280;12220;50.194;18.948;2023-03-22T08:15:19;101678.60;;;9.54;79.33
24013;BME280;12220;50.194;18.948;2023-03-22T08:17:20;101682.85;;;9.59;79.28
24013;BME280;12220;50.194;18.948;2023-03-22T08:19:22;101689.70;;;9.68;79.23
24013;BME280;12220;50.194;18.948;2023-03-22T08:21:23;101688.41;;;9.75;79.08
24013;BME280;12220;50.194;18.948;2023-03-22T08:23:34;101687.13;;;9.83;78.98
24013;BME280;12220;50.194;18.948;2023-03-22T08:25:35;101688.59;;;9.90;78.98
24013;BME280;12220;50.194;18.948;2023-03-22T08:27:37;101685.39;;;9.99;78.90
24013;BME280;12220;50.194;18.948;2023-03-22T08:29:39;101685.94;;;10.06;78.71
24013;BME280;12220;50.194;18.948;2023-03-22T08:31:49;101688.29;;;10.14;78.55
24013;BME280;12220;50.194;18.948;2023-03-22T08:33:52;101689.73;;;10.21;78.44
24013;BME280;12220;50.194;18.948;2023-03-22T08:38:06;101689.88;;;10.35;78.40
24013;BME280;12220;50.194;18.948;2023-03-22T08:40:09;101682.23;;;10.42;78.20
24013;BME280;12220;50.194;18.948;2023-03-22T08:42:11;101682.79;;;10.49;77.92
24013;BME280;12220;50.194;18.948;2023-03-22T08:44:12;101680.75;;;10.52;77.70
24013;BME280;12220;50.194;18.948;2023-03-22T08:46:14;101683.23;;;10.57;77.45
24013;BME280;12220;50.194;18.948;2023-03-22T08:48:20;101682.19;;;10.59;77.40
24013;BME280;12220;50.194;18.948;2023-03-22T08:50:22;101683.71;;;10.65;77.33
24013;BME280;12220;50.194;18.948;2023-03-22T08:52:23;101674.35;;;10.69;76.98
24013;BME280;12220;50.194;18.948;2023-03-22T08:54:25;101676.83;;;10.74;77.02
24013;BME280;12220;50.194;18.948;2023-03-22T08:56:34;101681.96;;;10.80;76.93
24013;BME280;12220;50.194;18.948;2023-03-22T08:58:38;101675.34;;;10.84;76.81
24013;BME280;12220;50.194;18.948;2023-03-22T09:00:39;101671.47;;;10.88;76.59
24013;BME280;12220;50.194;18.948;2023-03-22T09:02:44;101667.58;;;10.92;76.43
24013;BME280;12220;50.194;18.948;2023-03-22T09:04:49;101674.63;;;10.96;76.19
24013;BME280;12220;50.194;18.948;2023-03-22T09:06:51;101668.09;;;10.99;76.12
24013;BME280;12220;50.194;18.948;2023-03-22T09:08:52;101668.73;;;11.04;76.11
24013;BME280;12220;50.194;18.948;2023-03-22T09:10:54;101659.36;;;11.08;75.99
24013;BME280;12220;50.194;18.948;2023-03-22T09:13:04;101660.78;;;11.15;75.89
24013;BME280;12220;50.194;18.948;2023-03-22T09:15:06;101662.26;;;11.21;75.76
24013;BME280;12220;50.194;18.948;2023-03-22T09:17:08;101664.66;;;11.27;75.54
24013;BME280;12220;50.194;18.948;2023-03-22T09:19:09;101657.94;;;11.33;75.37
24013;BME280;12220;50.194;18.948;2023-03-22T09:21:19;101656.60;;;11.40;75.36
24013;BME280;12220;50.194;18.948;2023-03-22T09:23:21;101678.09;;;11.48;75.33
24013;BME280;12220;50.194;18.948;2023-03-22T09:25:23;101445.49;;;10.32;75.02
24013;BME280;12220;50.194;18.948;2023-03-22T09:27:25;101656.10;;;11.64;74.98
24013;BME280;12220;50.194;18.948;2023-03-22T09:29:34;101652.79;;;11.73;74.94
24013;BME280;12220;50.194;18.948;2023-03-22T09:31:36;101653.23;;;11.81;74.61
24013;BME280;12220;50.194;18.948;2023-03-22T09:33:38;101656.36;;;11.90;74.31
24013;BME280;12220;50.194;18.948;2023-03-22T09:35:42;101655.05;;;11.97;74.07
24013;BME280;12220;50.194;18.948;2023-03-22T09:37:50;101654.60;;;12.05;74.01
24013;BME280;12220;50.194;18.948;2023-03-22T09:39:54;101646.75;;;12.13;74.00
24013;BME280;12220;50.194;18.948;2023-03-22T09:42:00;101640.70;;;12.22;73.64
24013;BME280;12220;50.194;18.948;2023-03-22T09:44:07;101650.32;;;12.29;73.50
24013;BME280;12220;50.194;18.948;2023-03-22T09:46:22;101643.27;;;12.40;73.39
24013;BME280;12220;50.194;18.948;2023-03-22T09:48:32;101639.91;;;12.49;73.31
24013;BME280;12220;50.194;18.948;2023-03-22T09:50:43;101626.48;;;12.59;73.25
24013;BME280;12220;50.194;18.948;2023-03-22T09:52:45;101636.87;;;12.68;72.65
24013;BME280;12220;50.194;18.948;2023-03-22T09:54:46;101629.89;;;12.77;72.50
24013;BME280;12220;50.194;18.948;2023-03-22T09:59:16;101622.11;;;12.98;71.70
24013;BME280;12220;50.194;18.948;2023-03-22T10:01:29;101330.34;;;11.39;70.94
24013;BME280;12220;50.194;18.948;2023-03-22T10:05:59;101612.66;;;13.29;71.14
24013;BME280;12220;50.194;18.948;2023-03-22T10:08:11;101608.23;;;13.41;71.03
24013;BME280;12220;50.194;18.948;2023-03-22T10:10:19;101604.54;;;13.55;70.54
24013;BME280;12220;50.194;18.948;2023-03-22T10:14:59;101603.70;;;13.80;70.33
24013;BME280;12220;50.194;18.948;2023-03-22T10:17:13;101605.61;;;13.92;69.46
24013;BME280;12220;50.194;18.948;2023-03-22T10:19:22;101605.93;;;14.01;68.76
24013;BME280;12220;50.194;18.948;2023-03-22T10:21:27;101602.54;;;14.10;68.14
24013;BME280;12220;50.194;18.948;2023-03-22T10:25:42;101598.66;;;14.25;67.43
24013;BME280;12220;50.194;18.948;2023-03-22T10:27:53;101616.52;;;14.33;66.58
24013;BME280;12220;50.194;18.948;2023-03-22T10:32:13;101590.84;;;14.45;66.27
24013;BME280;12220;50.194;18.948;2023-03-22T10:34:27;101585.74;;;14.52;66.24
24013;BME280;12220;50.194;18.948;2023-03-22T10:36:34;101593.59;;;14.58;65.79
24013;BME280;12220;50.194;18.948;2023-03-22T10:38:44;101595.91;;;14.64;65.68
24013;BME280;12220;50.194;18.948;2023-03-22T10:40:57;101590.92;;;14.69;65.58
24013;BME280;12220;50.194;18.948;2023-03-22T10:43:07;101596.13;;;14.74;65.31
24013;BME280;12220;50.194;18.948;2023-03-22T10:45:13;101415.31;;;13.71;65.22
24013;BME280;12220;50.194;18.948;2023-03-22T10:47:18;101593.31;;;14.87;64.92
24013;BME280;12220;50.194;18.948;2023-03-22T10:49:31;101583.82;;;14.91;64.92
24013;BME280;12220;50.194;18.948;2023-03-22T10:51:45;101590.64;;;14.98;64.31
24013;BME280;12220;50.194;18.948;2023-03-22T10:53:49;101585.67;;;15.03;63.97
24013;BME280;12220;50.194;18.948;2023-03-22T10:55:53;101583.41;;;15.08;64.26
24013;BME280;12220;50.194;18.948;2023-03-22T11:00:07;101585.14;;;15.22;63.59
24013;BME280;12220;50.194;18.948;2023-03-22T11:02:25;101581.91;;;15.28;62.37
24013;BME280;12220;50.194;18.948;2023-03-22T11:04:29;101578.91;;;15.31;62.18
24013;BME280;12220;50.194;18.948;2023-03-22T11:06:32;101571.80;;;15.40;62.57
24013;BME280;12220;50.194;18.948;2023-03-22T11:08:45;101572.22;;;15.47;62.02
24013;BME280;12220;50.194;18.948;2023-03-22T11:10:49;101570.87;;;15.53;61.33
24013;BME280;12220;50.194;18.948;2023-03-22T11:13:10;101568.48;;;15.59;61.51
24013;BME280;12220;50.194;18.948;2023-03-22T11:15:26;101566.00;;;15.67;60.49
24013;BME280;12220;50.194;18.948;2023-03-22T11:17:29;101559.25;;;15.72;59.72
24013;BME280;12220;50.194;18.948;2023-03-22T11:19:38;101557.80;;;15.79;59.62
24013;BME280;12220;50.194;18.948;2023-03-22T11:21:40;101556.31;;;15.86;59.03
24013;BME280;12220;50.194;18.948;2023-03-22T11:26:05;101553.45;;;15.99;58.57
24013;BME280;12220;50.194;18.948;2023-03-22T11:30:26;101545.30;;;16.20;57.19
24013;BME280;12220;50.194;18.948;2023-03-22T11:32:34;101407.95;;;15.30;56.78
24013;BME280;12220;50.194;18.948;2023-03-22T11:34:36;101535.38;;;16.40;57.04
24013;BME280;12220;50.194;18.948;2023-03-22T11:36:47;101544.80;;;16.49;56.90
24013;BME280;12220;50.194;18.948;2023-03-22T11:39:02;101532.97;;;16.58;56.67
24013;BME280;12220;50.194;18.948;2023-03-22T11:43:23;101528.29;;;16.70;56.58
24013;BME280;12220;50.194;18.948;2023-03-22T11:45:30;101529.27;;;16.80;57.17
24013;BME280;12220;50.194;18.948;2023-03-22T11:47:36;101527.52;;;16.90;57.25
24013;BME280;12220;50.194;18.948;2023-03-22T11:49:47;101516.83;;;16.97;56.49
24013;BME280;12220;50.194;18.948;2023-03-22T11:51:51;101521.83;;;17.03;56.37
24013;BME280;12220;50.194;18.948;2023-03-22T11:54:04;101511.98;;;17.11;55.82
24013;BME280;12220;50.194;18.948;2023-03-22T11:56:09;101515.73;;;17.21;55.63
24013;BME280;12220;50.194;18.948;2023-03-22T12:00:38;101508.47;;;17.41;55.54
24013;BME280;12220;50.194;18.948;2023-03-22T12:02:50;101509.70;;;17.48;55.27
24013;BME280;12220;50.194;18.948;2023-03-22T12:05:05;101508.27;;;17.54;54.79
24013;BME280;12220;50.194;18.948;2023-03-22T12:07:14;101513.13;;;17.62;54.73
24013;BME280;12220;50.194;18.948;2023-03-22T12:09:24;101511.45;;;17.70;54.86
24013;BME280;12220;50.194;18.948;2023-03-22T12:11:33;101513.43;;;17.80;54.28
24013;BME280;12220;50.194;18.948;2023-03-22T12:14:06;101502.66;;;17.86;54.44
24013;BME280;12220;50.194;18.948;2023-03-22T12:16:05;101502.89;;;17.94;53.90